createdAt,value
2019-03-23T00:00:53.449Z,99.90
2019-03-23T00:03:24.439Z,99.90
2019-03-23T00:05:55.314Z,99.90
2019-03-23T00:08:26.237Z,99.90
2019-03-23T00:10:57.110Z,99.90
2019-03-23T00:13:28.114Z,99.90
2019-03-23T00:15:59.089Z,99.90
2019-03-23T00:18:30.002Z,99.90
2019-03-23T00:21:00.886Z,99.90
2019-03-23T00:23:31.814Z,99.90
2019-03-23T00:26:02.714Z,99.90
2019-03-23T00:28:33.641Z,99.90
2019-03-23T00:31:04.509Z,99.90
2019-03-23T00:33:35.502Z,99.90
2019-03-23T00:36:06.464Z,99.90
2019-03-23T00:38:37.366Z,99.90
2019-03-23T00:41:08.249Z,99.90
2019-03-23T00:43:39.170Z,99.90
2019-03-23T00:46:10.061Z,99.90
2019-03-23T00:48:40.981Z,99.90
2019-03-23T00:51:11.850Z,99.90
2019-03-23T00:53:42.841Z,99.90
2019-03-23T00:56:13.718Z,99.90
2019-03-23T00:58:45.058Z,99.90
2019-03-23T01:01:16.026Z,99.90
2019-03-23T01:03:47.051Z,99.90
2019-03-23T01:06:17.933Z,99.90
2019-03-23T01:08:48.841Z,99.90
2019-03-23T01:11:19.724Z,99.90
2019-03-23T01:13:50.789Z,99.90
2019-03-23T01:16:21.974Z,99.90
2019-03-23T01:18:52.883Z,99.90
2019-03-23T01:21:23.763Z,99.90
2019-03-23T01:23:54.659Z,99.90
2019-03-23T01:26:26.731Z,99.90
2019-03-23T01:28:57.878Z,99.90
2019-03-23T01:31:28.757Z,99.90
2019-03-23T01:34:00.058Z,99.90
2019-03-23T01:36:30.995Z,99.90
2019-03-23T01:39:01.897Z,99.90
2019-03-23T01:41:34.248Z,99.90
2019-03-23T01:44:05.993Z,99.90
2019-03-23T01:46:36.877Z,99.90
2019-03-23T01:49:07.876Z,99.90
2019-03-23T01:51:38.758Z,99.90
2019-03-23T01:54:09.756Z,99.90
2019-03-23T01:56:40.638Z,99.90
2019-03-23T01:59:11.571Z,99.90
2019-03-23T02:01:42.461Z,99.90
2019-03-23T02:04:13.459Z,99.90
2019-03-23T02:06:44.335Z,99.90
2019-03-23T02:09:15.669Z,99.90
2019-03-23T02:11:46.541Z,99.90
2019-03-23T02:14:17.458Z,99.90
2019-03-23T02:16:48.336Z,99.90
2019-03-23T02:19:19.264Z,99.90
2019-03-23T02:21:51.217Z,99.90
2019-03-23T02:24:22.133Z,99.90
2019-03-23T02:26:53.017Z,99.90
2019-03-23T02:29:24.018Z,99.90
2019-03-23T02:31:54.901Z,99.90
2019-03-23T02:34:25.830Z,99.90
2019-03-23T02:36:56.777Z,99.90
2019-03-23T02:39:27.785Z,99.90
2019-03-23T02:41:58.679Z,99.90
2019-03-23T02:44:29.688Z,99.90
2019-03-23T02:47:00.565Z,99.90
2019-03-23T02:49:31.506Z,99.90
2019-03-23T02:52:02.396Z,99.90
2019-03-23T02:54:33.456Z,99.90
2019-03-23T02:57:04.346Z,99.90
2019-03-23T02:59:35.274Z,99.90
2019-03-23T03:02:06.257Z,99.90
2019-03-23T03:04:37.196Z,99.90
2019-03-23T03:07:08.074Z,99.90
2019-03-23T03:09:39.007Z,99.90
2019-03-23T03:12:09.889Z,99.90
2019-03-23T03:14:40.905Z,99.90
2019-03-23T03:17:11.766Z,99.90
2019-03-23T03:19:42.681Z,99.90
2019-03-23T03:22:13.566Z,99.90
2019-03-23T03:24:44.490Z,99.90
2019-03-23T03:27:15.361Z,99.90
2019-03-23T03:29:46.378Z,99.90
2019-03-23T03:32:17.264Z,99.90
2019-03-23T03:34:48.182Z,99.90
2019-03-23T03:37:19.125Z,99.90
2019-03-23T03:39:50.362Z,99.90
2019-03-23T03:42:21.345Z,99.90
2019-03-23T03:44:52.259Z,99.90
2019-03-23T03:47:23.241Z,99.90
2019-03-23T03:49:54.150Z,99.90
2019-03-23T03:52:25.039Z,99.90
2019-03-23T03:54:55.948Z,99.90
2019-03-23T03:57:26.826Z,99.90
2019-03-23T03:59:57.761Z,99.90
2019-03-23T04:02:28.647Z,99.90
2019-03-23T04:04:59.588Z,99.90
2019-03-23T04:07:30.509Z,99.90
2019-03-23T04:10:01.422Z,99.90
2019-03-23T04:12:32.374Z,99.90
2019-03-23T04:15:03.382Z,99.90
2019-03-23T04:17:34.297Z,99.90
2019-03-23T04:20:05.720Z,99.90
2019-03-23T04:22:36.605Z,99.90
2019-03-23T04:25:08.690Z,99.90
2019-03-23T04:27:39.571Z,99.90
2019-03-23T04:30:10.882Z,99.90
2019-03-23T04:32:41.770Z,99.90
2019-03-23T04:35:13.061Z,99.90
2019-03-23T04:37:44.005Z,99.90
2019-03-23T04:40:15.226Z,99.90
2019-03-23T04:42:46.112Z,99.90
2019-03-23T04:45:17.401Z,99.90
2019-03-23T04:47:48.288Z,99.90
2019-03-23T04:50:19.294Z,99.90
2019-03-23T04:52:50.181Z,99.90
2019-03-23T04:55:21.117Z,99.90
2019-03-23T04:57:52.003Z,99.90
2019-03-23T05:00:23.017Z,99.90
2019-03-23T05:02:53.898Z,99.90
2019-03-23T05:05:24.837Z,99.90
2019-03-23T05:07:55.718Z,99.90
2019-03-23T05:10:26.659Z,99.90
2019-03-23T05:12:57.557Z,99.90
2019-03-23T05:15:28.500Z,99.90
2019-03-23T05:17:59.381Z,99.90
2019-03-23T05:20:31.631Z,99.90
2019-03-23T05:23:02.519Z,99.90
2019-03-23T05:25:33.472Z,99.90
2019-03-23T05:28:04.357Z,99.90
2019-03-23T05:30:35.297Z,99.90
2019-03-23T05:33:07.131Z,99.90
2019-03-23T05:35:38.173Z,99.90
2019-03-23T05:38:09.185Z,99.90
2019-03-23T05:40:40.553Z,99.90
2019-03-23T05:43:11.438Z,99.90
2019-03-23T05:45:42.368Z,99.90
2019-03-23T05:48:13.258Z,99.90
2019-03-23T05:50:44.275Z,99.90
2019-03-23T05:53:15.166Z,99.90
2019-03-23T05:55:46.086Z,99.90
2019-03-23T05:58:17.039Z,99.90
2019-03-23T06:00:47.954Z,99.90
2019-03-23T06:03:18.830Z,99.90
2019-03-23T06:05:49.762Z,99.90
2019-03-23T06:08:20.651Z,99.90
2019-03-23T06:10:51.567Z,99.90
2019-03-23T06:13:22.449Z,99.90
2019-03-23T06:15:54.437Z,99.90
2019-03-23T06:18:25.330Z,99.90
2019-03-23T06:20:56.253Z,99.90
2019-03-23T06:23:27.136Z,99.90
2019-03-23T06:25:58.270Z,99.90
2019-03-23T06:28:29.312Z,99.90
2019-03-23T06:31:00.253Z,99.90
2019-03-23T06:33:31.129Z,99.90
2019-03-23T06:36:02.041Z,99.90
2019-03-23T06:38:32.998Z,99.90
2019-03-23T06:41:03.905Z,99.90
2019-03-23T06:43:34.790Z,99.90
2019-03-23T06:46:05.714Z,99.90
2019-03-23T06:48:36.597Z,99.90
2019-03-23T06:51:07.589Z,99.90
2019-03-23T06:53:38.480Z,99.90
2019-03-23T06:56:09.400Z,99.90
2019-03-23T06:58:40.285Z,99.90
2019-03-23T07:01:11.197Z,99.90
2019-03-23T07:03:42.089Z,99.90
2019-03-23T07:06:12.998Z,99.70
2019-03-23T07:08:43.884Z,99.20
2019-03-23T07:11:14.789Z,98.00
2019-03-23T07:13:45.680Z,96.30
2019-03-23T07:16:16.592Z,96.80
2019-03-23T07:18:47.484Z,97.50
2019-03-23T07:21:18.818Z,95.70
2019-03-23T07:23:49.703Z,95.10
2019-03-23T07:26:20.638Z,94.70
2019-03-23T07:28:51.529Z,96.30
2019-03-23T07:31:22.457Z,94.80
2019-03-23T07:33:53.338Z,93.70
2019-03-23T07:36:24.266Z,92.70
2019-03-23T07:38:55.202Z,93.50
2019-03-23T07:41:26.354Z,93.20
2019-03-23T07:43:57.631Z,94.50
2019-03-23T07:46:28.630Z,93.50
2019-03-23T07:48:59.821Z,94.70
2019-03-23T07:51:30.745Z,94.80
2019-03-23T07:54:02.755Z,93.50
2019-03-23T07:56:34.160Z,94.50
2019-03-23T07:59:05.416Z,93.80
2019-03-23T08:01:36.416Z,93.80
2019-03-23T08:04:07.338Z,93.60
2019-03-23T08:06:38.605Z,94.40
2019-03-23T08:09:19.803Z,93.50
2019-03-23T08:11:42.053Z,93.90
2019-03-23T08:14:12.941Z,93.80
2019-03-23T08:16:44.248Z,93.50
2019-03-23T08:19:15.137Z,93.50
2019-03-23T08:21:46.062Z,93.30
2019-03-23T08:24:16.945Z,92.30
2019-03-23T08:26:47.893Z,92.30
2019-03-23T08:29:18.784Z,92.80
2019-03-23T08:31:49.707Z,92.90
2019-03-23T08:34:20.610Z,92.40
2019-03-23T08:36:51.509Z,91.60
2019-03-23T08:39:22.533Z,91.20
2019-03-23T08:41:53.547Z,91.50
2019-03-23T08:44:24.495Z,91.00
2019-03-23T08:46:55.507Z,90.10
2019-03-23T08:49:28.615Z,88.60
2019-03-23T08:51:59.172Z,87.20
2019-03-23T08:54:30.134Z,85.10
2019-03-23T08:57:01.129Z,85.80
2019-03-23T08:59:32.012Z,84.50
2019-03-23T09:02:02.949Z,88.70
2019-03-23T09:04:33.833Z,85.80
2019-03-23T09:07:04.754Z,87.40
2019-03-23T09:09:35.643Z,87.20
2019-03-23T09:12:06.562Z,85.60
2019-03-23T09:14:37.434Z,86.20
2019-03-23T09:17:08.341Z,84.90
2019-03-23T09:19:39.252Z,82.50
2019-03-23T09:22:11.259Z,83.00
2019-03-23T09:24:42.145Z,83.20
2019-03-23T09:27:13.357Z,83.20
2019-03-23T09:29:45.306Z,81.50
2019-03-23T09:32:16.902Z,82.50
2019-03-23T09:34:47.807Z,82.50
2019-03-23T09:37:19.037Z,81.70
2019-03-23T09:39:50.285Z,82.50
2019-03-23T09:42:21.204Z,83.80
2019-03-23T09:44:52.461Z,82.00
2019-03-23T09:47:23.376Z,82.30
2019-03-23T09:49:54.353Z,84.30
2019-03-23T09:52:25.375Z,81.40
2019-03-23T09:54:56.632Z,80.00
2019-03-23T09:57:28.119Z,80.60
2019-03-23T09:59:59.009Z,82.30
2019-03-23T10:02:30.377Z,80.00
2019-03-23T10:05:02.331Z,80.90
2019-03-23T10:07:33.726Z,81.80
2019-03-23T10:10:05.114Z,77.60
2019-03-23T10:12:36.130Z,80.30
2019-03-23T10:15:08.631Z,78.20
2019-03-23T10:17:40.378Z,75.60
2019-03-23T10:20:11.356Z,77.30
2019-03-23T10:22:42.434Z,75.60
2019-03-23T10:25:13.330Z,77.30
2019-03-23T10:27:44.369Z,76.60
2019-03-23T10:30:15.366Z,76.40
2019-03-23T10:32:46.672Z,80.80
2019-03-23T10:35:17.573Z,77.00
2019-03-23T10:37:48.597Z,76.30
2019-03-23T10:40:19.630Z,75.80
2019-03-23T10:42:50.542Z,80.40
2019-03-23T10:45:21.439Z,79.10
2019-03-23T10:47:53.185Z,78.50
2019-03-23T10:50:25.482Z,76.80
2019-03-23T10:52:58.214Z,76.40
2019-03-23T10:55:29.941Z,77.20
2019-03-23T10:58:00.916Z,78.60
2019-03-23T11:00:32.206Z,76.20
2019-03-23T11:03:03.758Z,79.40
2019-03-23T11:05:35.023Z,80.60
2019-03-23T11:08:06.134Z,78.80
2019-03-23T11:10:41.782Z,79.60
2019-03-23T11:13:10.308Z,81.20
2019-03-23T11:15:41.182Z,82.50
2019-03-23T11:18:13.798Z,79.10
2019-03-23T11:20:44.677Z,80.60
2019-03-23T11:23:15.586Z,81.30
2019-03-23T11:25:46.469Z,81.80
2019-03-23T11:28:17.389Z,81.70
2019-03-23T11:30:48.273Z,83.00
2019-03-23T11:33:19.290Z,84.00
2019-03-23T11:35:57.424Z,83.00
2019-03-23T11:38:22.862Z,84.00
2019-03-23T11:40:55.282Z,84.80
2019-03-23T11:43:26.489Z,84.30
2019-03-23T11:45:57.371Z,84.80
2019-03-23T11:48:28.647Z,85.50
2019-03-23T11:50:59.918Z,86.00
2019-03-23T11:53:30.924Z,88.00
2019-03-23T11:56:01.820Z,87.50
2019-03-23T11:58:32.821Z,88.30
2019-03-23T12:01:03.714Z,89.80
2019-03-23T12:03:34.926Z,90.30
2019-03-23T12:06:05.825Z,91.10
2019-03-23T12:08:36.833Z,90.90
2019-03-23T12:11:07.722Z,90.20
2019-03-23T12:13:38.634Z,90.30
2019-03-23T12:16:09.509Z,90.70
2019-03-23T12:18:40.534Z,91.50
2019-03-23T12:21:11.421Z,90.90
2019-03-23T12:23:42.361Z,90.50
2019-03-23T12:26:13.241Z,91.10
2019-03-23T12:28:44.187Z,91.50
2019-03-23T12:31:15.078Z,91.20
2019-03-23T12:33:46.014Z,91.50
2019-03-23T12:36:16.902Z,91.00
2019-03-23T12:38:47.829Z,91.10
2019-03-23T12:41:23.100Z,91.70
2019-03-23T12:43:51.501Z,91.20
2019-03-23T12:46:22.382Z,91.30
2019-03-23T12:48:53.308Z,92.10
2019-03-23T12:51:24.196Z,91.00
2019-03-23T12:53:55.115Z,92.10
2019-03-23T12:56:26.386Z,91.60
2019-03-23T12:58:58.365Z,90.70
2019-03-23T13:01:29.267Z,91.20
2019-03-23T13:04:00.189Z,91.20
2019-03-23T13:06:31.077Z,91.90
2019-03-23T13:09:02.013Z,92.60
2019-03-23T13:11:35.456Z,91.70
2019-03-23T13:14:06.614Z,91.70
2019-03-23T13:16:37.510Z,91.50
2019-03-23T13:19:08.554Z,91.70
2019-03-23T13:21:39.458Z,91.50
2019-03-23T13:24:10.397Z,91.20
2019-03-23T13:26:41.293Z,92.00
2019-03-23T13:29:12.521Z,91.70
2019-03-23T13:31:43.411Z,91.00
2019-03-23T13:34:14.333Z,91.20
2019-03-23T13:36:45.219Z,91.00
2019-03-23T13:39:16.218Z,90.60
2019-03-23T13:41:51.259Z,91.10
2019-03-23T13:44:22.180Z,90.90
2019-03-23T13:46:53.058Z,91.10
2019-03-23T13:49:23.987Z,90.50
2019-03-23T13:51:54.891Z,90.60
2019-03-23T13:54:25.961Z,90.20
2019-03-23T13:56:56.853Z,90.70
2019-03-23T13:59:27.777Z,90.70
2019-03-23T14:01:58.669Z,89.90
2019-03-23T14:04:29.586Z,90.20
2019-03-23T14:07:00.477Z,89.90
2019-03-23T14:09:31.408Z,90.30
2019-03-23T14:12:02.290Z,89.30
2019-03-23T14:14:33.585Z,90.20
2019-03-23T14:17:04.562Z,90.10
2019-03-23T14:19:35.501Z,90.00
2019-03-23T14:22:06.402Z,89.80
2019-03-23T14:24:37.392Z,90.60
2019-03-23T14:27:08.277Z,90.20
2019-03-23T14:29:39.433Z,90.20
2019-03-23T14:32:10.316Z,90.60
2019-03-23T14:34:41.317Z,90.00
2019-03-23T14:37:12.204Z,90.10
2019-03-23T14:39:43.126Z,89.90
2019-03-23T14:42:14.074Z,90.20
2019-03-23T14:44:45.073Z,90.40
2019-03-23T14:47:15.951Z,90.20
2019-03-23T14:49:46.953Z,90.20
2019-03-23T14:52:17.835Z,89.00
2019-03-23T14:54:49.090Z,89.80
2019-03-23T14:57:19.962Z,89.60
2019-03-23T14:59:50.964Z,89.90
2019-03-23T15:02:21.853Z,88.40
2019-03-23T15:04:52.869Z,88.60
2019-03-23T15:07:23.755Z,87.80
2019-03-23T15:09:54.757Z,89.00
2019-03-23T15:12:25.642Z,88.80
2019-03-23T15:14:56.816Z,87.50
2019-03-23T15:17:27.680Z,85.60
2019-03-23T15:19:58.628Z,86.60
2019-03-23T15:22:29.989Z,86.90
2019-03-23T15:25:00.906Z,86.50
2019-03-23T15:27:31.786Z,86.80
2019-03-23T15:30:02.826Z,88.70
2019-03-23T15:32:33.771Z,88.80
2019-03-23T15:35:04.779Z,88.30
2019-03-23T15:37:36.054Z,88.80
2019-03-23T15:40:07.481Z,89.40
2019-03-23T15:42:38.409Z,89.40
2019-03-23T15:45:09.646Z,89.60
2019-03-23T15:47:40.541Z,89.80
2019-03-23T15:50:12.387Z,89.70
2019-03-23T15:52:43.274Z,89.60
2019-03-23T15:55:14.313Z,89.40
2019-03-23T15:57:45.194Z,89.60
2019-03-23T16:00:16.830Z,89.60
2019-03-23T16:02:47.709Z,89.30
2019-03-23T16:05:18.748Z,90.10
2019-03-23T16:07:49.730Z,89.50
2019-03-23T16:10:20.653Z,88.80
2019-03-23T16:12:51.617Z,88.20
2019-03-23T16:15:22.549Z,89.40
2019-03-23T16:17:53.434Z,89.70
2019-03-23T16:20:24.464Z,89.10
2019-03-23T16:22:55.350Z,90.20
2019-03-23T16:25:26.282Z,90.00
2019-03-23T16:27:57.175Z,89.20
2019-03-23T16:30:32.835Z,89.60
2019-03-23T16:33:03.733Z,89.30
2019-03-23T16:35:35.734Z,89.30
2019-03-23T16:38:06.618Z,89.80
2019-03-23T16:40:37.627Z,90.00
2019-03-23T16:43:08.647Z,90.10
2019-03-23T16:45:39.598Z,89.50
2019-03-23T16:48:10.499Z,89.50
2019-03-23T16:50:41.509Z,90.40
2019-03-23T16:53:12.459Z,90.40
2019-03-23T16:55:43.472Z,90.20
2019-03-23T16:58:16.321Z,90.40
2019-03-23T17:00:46.895Z,90.30
2019-03-23T17:03:17.782Z,90.60
2019-03-23T17:05:48.808Z,90.30
2019-03-23T17:08:19.641Z,90.70
2019-03-23T17:10:50.558Z,90.80
2019-03-23T17:13:21.445Z,90.80
2019-03-23T17:15:52.445Z,91.20
2019-03-23T17:18:23.329Z,91.20
2019-03-23T17:20:54.391Z,91.40
2019-03-23T17:23:26.341Z,91.30
2019-03-23T17:25:57.318Z,91.30
2019-03-23T17:28:28.201Z,91.30
2019-03-23T17:30:59.335Z,91.90
2019-03-23T17:33:30.282Z,91.80
2019-03-23T17:36:01.205Z,91.90
2019-03-23T17:38:32.078Z,91.70
2019-03-23T17:41:03.105Z,91.70
2019-03-23T17:43:35.118Z,91.60
2019-03-23T17:46:06.045Z,91.80
2019-03-23T17:48:36.917Z,91.70
2019-03-23T17:51:07.942Z,91.70
2019-03-23T17:53:38.910Z,91.70
2019-03-23T17:56:09.836Z,91.70
2019-03-23T17:58:40.801Z,91.70
2019-03-23T18:01:19.270Z,91.90
2019-03-23T18:03:47.006Z,91.80
2019-03-23T18:06:18.001Z,92.20
2019-03-23T18:08:48.886Z,91.80
2019-03-23T18:11:19.982Z,91.70
2019-03-23T18:13:50.861Z,91.90
2019-03-23T18:16:22.234Z,92.00
2019-03-23T18:18:53.115Z,92.00
2019-03-23T18:21:24.053Z,91.90
2019-03-23T18:23:54.945Z,92.10
2019-03-23T18:26:25.866Z,92.10
2019-03-23T18:28:57.137Z,92.20
2019-03-23T18:31:28.080Z,92.10
2019-03-23T18:33:58.960Z,92.90
2019-03-23T18:36:29.874Z,92.80
2019-03-23T18:39:00.753Z,93.10
2019-03-23T18:41:31.962Z,93.00
2019-03-23T18:44:02.998Z,93.10
2019-03-23T18:46:34.369Z,93.30
2019-03-23T18:49:05.259Z,93.50
2019-03-23T18:51:36.281Z,93.90
2019-03-23T18:54:07.157Z,93.70
2019-03-23T18:56:38.496Z,93.80
2019-03-23T18:59:09.385Z,93.80
2019-03-23T19:01:40.285Z,93.80
2019-03-23T19:04:11.169Z,94.00
2019-03-23T19:06:42.170Z,93.90
2019-03-23T19:09:13.074Z,94.10
2019-03-23T19:11:44.090Z,94.10
2019-03-23T19:14:14.963Z,94.30
2019-03-23T19:16:45.885Z,94.40
2019-03-23T19:19:16.786Z,94.40
2019-03-23T19:21:47.836Z,94.60
2019-03-23T19:24:18.715Z,94.90
2019-03-23T19:26:49.634Z,94.70
2019-03-23T19:29:20.513Z,94.70
2019-03-23T19:31:51.518Z,95.00
2019-03-23T19:34:22.401Z,95.00
2019-03-23T19:36:53.338Z,95.20
2019-03-23T19:39:24.250Z,95.20
2019-03-23T19:41:55.858Z,95.30
2019-03-23T19:44:26.805Z,95.30
2019-03-23T19:46:57.813Z,95.40
2019-03-23T19:49:29.774Z,95.60
2019-03-23T19:52:00.707Z,95.50
2019-03-23T19:54:31.654Z,95.60
2019-03-23T19:57:02.622Z,95.60
2019-03-23T19:59:33.514Z,95.70
2019-03-23T20:02:04.599Z,95.70
2019-03-23T20:04:35.486Z,95.80
2019-03-23T20:07:06.397Z,95.80
2019-03-23T20:09:37.291Z,95.80
2019-03-23T20:12:09.850Z,95.90
2019-03-23T20:14:41.759Z,95.80
2019-03-23T20:17:12.865Z,95.80
2019-03-23T20:19:43.755Z,95.70
2019-03-23T20:22:14.661Z,95.50
2019-03-23T20:24:45.550Z,95.50
2019-03-23T20:27:16.599Z,95.40
2019-03-23T20:29:47.563Z,95.40
2019-03-23T20:32:18.491Z,95.30
2019-03-23T20:34:49.379Z,95.40
2019-03-23T20:37:20.638Z,95.20
2019-03-23T20:39:51.529Z,95.10
2019-03-23T20:42:22.466Z,95.10
2019-03-23T20:44:53.574Z,95.10
2019-03-23T20:47:24.577Z,95.10
2019-03-23T20:49:55.662Z,95.10
2019-03-23T20:52:26.601Z,95.30
2019-03-23T20:54:57.485Z,95.30
2019-03-23T20:57:36.902Z,95.30
2019-03-23T21:00:01.714Z,95.30
2019-03-23T21:02:33.878Z,95.80
2019-03-23T21:05:04.979Z,95.40
2019-03-23T21:07:35.994Z,95.50
2019-03-23T21:10:07.078Z,95.50
2019-03-23T21:12:38.300Z,96.00
2019-03-23T21:15:09.393Z,96.20
2019-03-23T21:17:50.690Z,96.00
2019-03-23T21:20:12.817Z,96.40
2019-03-23T21:22:43.821Z,96.10
2019-03-23T21:25:14.757Z,95.90
2019-03-23T21:27:45.677Z,95.80
2019-03-23T21:30:17.474Z,96.10
2019-03-23T21:32:48.395Z,96.00
2019-03-23T21:35:19.270Z,96.70
2019-03-23T21:37:50.206Z,96.00
2019-03-23T21:40:21.459Z,96.30
2019-03-23T21:42:52.381Z,96.40
2019-03-23T21:45:23.297Z,96.40
2019-03-23T21:47:54.310Z,96.70
2019-03-23T21:50:25.194Z,96.40
2019-03-23T21:52:56.198Z,96.40
2019-03-23T21:55:27.083Z,96.20
2019-03-23T21:57:57.993Z,96.60
2019-03-23T22:00:33.446Z,96.50
2019-03-23T22:03:04.790Z,96.60
2019-03-23T22:05:35.665Z,96.60
2019-03-23T22:08:06.591Z,96.50
2019-03-23T22:10:37.529Z,97.00
2019-03-23T22:13:09.141Z,96.90
2019-03-23T22:15:40.025Z,97.30
2019-03-23T22:18:11.050Z,97.60
2019-03-23T22:20:41.938Z,97.10
2019-03-23T22:23:13.786Z,97.50
2019-03-23T22:25:44.650Z,98.00
2019-03-23T22:28:15.573Z,98.00
2019-03-23T22:30:46.448Z,97.90
2019-03-23T22:33:17.701Z,97.70
2019-03-23T22:35:48.594Z,98.00
2019-03-23T22:38:19.530Z,98.20
2019-03-23T22:40:50.403Z,98.10
2019-03-23T22:43:21.649Z,98.20
2019-03-23T22:45:52.589Z,98.30
2019-03-23T22:48:23.825Z,98.30
2019-03-23T22:50:54.715Z,98.40
2019-03-23T22:53:25.622Z,98.10
2019-03-23T22:55:56.505Z,98.20
2019-03-23T22:58:27.846Z,98.60
2019-03-23T23:00:58.878Z,98.30
2019-03-23T23:03:29.789Z,98.50
2019-03-23T23:06:00.679Z,98.50
2019-03-23T23:08:31.613Z,98.70
2019-03-23T23:11:02.498Z,98.80
2019-03-23T23:13:33.413Z,98.80
2019-03-23T23:16:04.297Z,98.70
2019-03-23T23:18:35.210Z,98.90
2019-03-23T23:21:06.134Z,98.80
2019-03-23T23:23:37.017Z,98.80
2019-03-23T23:26:08.035Z,98.60
2019-03-23T23:28:39.025Z,98.70
2019-03-23T23:31:09.954Z,99.00
2019-03-23T23:33:42.152Z,98.80
2019-03-23T23:36:24.486Z,98.90
2019-03-23T23:38:55.395Z,98.90
